Time;durP1;ratioP1;P1;durP2;ratioP2;P2;SDS_P1;SDS_P2;PMS_P1;PMS_P2;Temp;Humidity;BMP_temperature;BMP_pressure;BME280_temperature;BME280_humidity;BME280_pressure;Samples;Min_cycle;Max_cycle;Signal;HPM_P1;HPM_P2
2022/05/02 00:00:20;;;;;;;1.30;1.27;;;10.60;90.60;9.90;98432.00;;;;5134655;28;20273;-79
2022/05/02 00:02:48;;;;;;;2.23;2.03;;;10.50;91.30;9.80;98425.00;;;;5134523;28;20205;-78
2022/05/02 00:05:15;;;;;;;0.70;0.70;;;10.50;91.10;9.80;98407.00;;;;5136623;27;20725;-79
2022/05/02 00:07:42;;;;;;;1.03;1.03;;;10.50;90.70;9.80;98428.00;;;;5120110;28;20535;-78
2022/05/02 00:10:10;;;;;;;1.27;1.27;;;10.50;90.00;9.70;98427.00;;;;5138262;28;20285;-78
2022/05/02 00:12:37;;;;;;;2.00;1.80;;;10.40;89.70;9.50;98389.00;;;;5120097;28;20292;-79
2022/05/02 00:15:05;;;;;;;1.87;1.77;;;10.30;90.20;9.60;98414.00;;;;5137951;28;20235;-79
2022/05/02 00:20:17;;;;;;;0.70;0.70;;;10.20;90.50;9.30;98406.00;;;;5137921;28;20224;-77
2022/05/02 00:22:46;;;;;;;4.47;1.43;;;10.10;91.10;9.50;98400.00;;;;5119734;28;20563;-76
2022/05/02 00:25:16;;;;;;;3.50;1.57;;;10.10;92.00;9.40;98405.00;;;;5138028;28;20189;-78
2022/05/02 00:27:44;;;;;;;1.30;1.23;;;10.10;91.80;9.30;98413.00;;;;5137892;28;20284;-78
2022/05/02 00:30:15;;;;;;;0.97;0.97;;;10.10;91.70;9.30;98411.00;;;;5138002;28;20258;-78
2022/05/02 00:32:42;;;;;;;1.57;1.47;;;10.00;92.20;9.20;98402.00;;;;5137767;28;20213;-77
2022/05/02 00:35:10;;;;;;;2.13;2.00;;;9.90;91.80;9.10;98397.00;;;;5137666;28;20221;-78
2022/05/02 00:37:37;;;;;;;1.33;1.33;;;9.90;92.10;9.20;98410.00;;;;5137697;28;20259;-78
2022/05/02 00:40:05;;;;;;;1.93;1.83;;;9.90;93.30;9.30;98402.00;;;;5119500;28;20300;-78
2022/05/02 00:42:35;;;;;;;1.27;1.27;;;9.90;92.80;9.30;98406.00;;;;5137683;28;20213;-78
2022/05/02 00:45:05;;;;;;;2.20;2.03;;;10.00;92.80;9.20;98402.00;;;;5137707;28;20261;-78
2022/05/02 00:47:32;;;;;;;0.97;0.97;;;9.90;93.10;9.10;98393.00;;;;5137881;28;20199;-78
2022/05/02 00:49:59;;;;;;;1.63;1.40;;;9.90;93.40;9.20;98399.00;;;;5137794;28;20293;-78
2022/05/02 00:52:25;;;;;;;1.43;1.40;;;9.90;94.00;9.10;98399.00;;;;5137754;28;20198;-79
2022/05/02 00:54:52;;;;;;;1.13;1.13;;;9.80;93.60;9.10;98396.00;;;;5137344;28;20303;-80
2022/05/02 00:57:19;;;;;;;1.93;1.33;;;9.90;93.80;9.10;98397.00;;;;5137881;28;20212;-78
2022/05/02 00:59:48;;;;;;;0.87;0.87;;;9.80;93.80;9.20;98391.00;;;;5137444;28;20319;-78
2022/05/02 01:02:15;;;;;;;1.17;1.17;;;9.80;93.90;9.30;98381.00;;;;5137465;28;20201;-78
2022/05/02 01:04:43;;;;;;;1.00;0.97;;;9.90;93.50;9.20;98379.00;;;;5137361;28;20697;-78
2022/05/02 01:07:11;;;;;;;1.00;1.00;;;9.90;92.80;9.00;98379.00;;;;5137620;28;20220;-79
2022/05/02 01:09:41;;;;;;;1.37;1.33;;;9.80;92.90;9.10;98389.00;;;;5137303;28;20245;-78
2022/05/02 01:12:11;;;;;;;1.67;1.57;;;9.70;92.90;9.10;98382.00;;;;5137709;28;20226;-79
2022/05/02 01:14:38;;;;;;;0.83;0.83;;;9.80;92.10;9.10;98380.00;;;;5137172;28;20232;-78
2022/05/02 01:17:07;;;;;;;2.13;2.00;;;9.80;92.60;8.90;98383.00;;;;5137047;27;20304;-78
2022/05/02 01:19:35;;;;;;;1.53;1.43;;;9.70;92.50;8.80;98377.00;;;;5137243;28;20205;-79
2022/05/02 01:22:03;;;;;;;0.90;0.90;;;9.60;93.30;8.80;98378.00;;;;5137034;28;20386;-78
2022/05/02 01:24:35;;;;;;;1.73;1.63;;;9.60;93.70;8.90;98371.00;;;;5137252;28;20602;-79
2022/05/02 01:27:02;;;;;;;0.97;0.97;;;9.60;93.40;8.90;98377.00;;;;5137229;28;20607;-78
2022/05/02 01:29:31;;;;;;;1.87;1.77;;;9.60;93.20;8.80;98368.00;;;;5137318;28;20189;-78
2022/05/02 01:32:01;;;;;;;0.83;0.83;;;9.60;92.20;8.90;98346.00;;;;5119167;28;20547;-79
2022/05/02 01:34:28;;;;;;;1.00;1.00;;;9.60;92.80;8.90;98363.00;;;;5136875;28;20253;-82
2022/05/02 01:36:56;;;;;;;1.40;1.30;;;9.60;92.40;9.00;98367.00;;;;5136967;28;20193;-82
2022/05/02 01:39:23;;;;;;;0.90;0.90;;;9.60;92.70;9.00;98364.00;;;;5136743;28;20665;-80
2022/05/02 01:41:50;;;;;;;1.40;1.30;;;9.60;92.70;8.90;98364.00;;;;5118820;28;20303;-79
2022/05/02 01:44:17;;;;;;;1.10;1.10;;;9.50;92.80;8.80;98363.00;;;;5136968;28;20637;-78
2022/05/02 01:46:46;;;;;;;1.70;1.60;;;9.60;92.50;8.90;98355.00;;;;5118835;28;20197;-79
2022/05/02 01:49:12;;;;;;;1.37;1.37;;;9.60;92.80;8.90;98351.00;;;;5136713;28;20213;-79
2022/05/02 01:51:40;;;;;;;2.20;1.97;;;9.50;93.00;9.00;98350.00;;;;5118521;28;20212;-81
2022/05/02 01:54:06;;;;;;;1.27;1.27;;;9.60;93.00;8.80;98350.00;;;;5137039;28;20268;-76
2022/05/02 01:56:33;;;;;;;1.43;1.33;;;9.50;92.60;8.70;98352.00;;;;5136839;28;20305;-77
2022/05/02 01:59:00;;;;;;;1.53;1.50;;;9.40;93.10;8.70;98350.00;;;;5136362;28;20312;-77
2022/05/02 02:01:29;;;;;;;1.20;1.20;;;9.40;93.10;8.60;98346.00;;;;5136361;28;20292;-80
2022/05/02 02:03:56;;;;;;;2.10;1.90;;;9.30;93.30;8.70;98323.00;;;;5136471;28;20232;-79
2022/05/02 02:06:23;;;;;;;1.77;1.67;;;9.30;93.70;8.70;98343.00;;;;5136384;28;20221;-79
2022/05/02 02:08:50;;;;;;;1.30;1.23;;;9.30;93.90;8.80;98345.00;;;;5136397;28;20201;-76
2022/05/02 02:11:17;;;;;;;2.40;1.90;;;9.40;93.70;8.70;98330.00;;;;5136106;28;20257;-78
2022/05/02 02:13:44;;;;;;;1.43;1.33;;;9.40;93.40;8.70;98343.00;;;;5136294;28;20240;-78
2022/05/02 02:16:11;;;;;;;3.00;1.63;;;9.40;93.60;8.60;98345.00;;;;5136248;28;20548;-78
2022/05/02 02:18:38;;;;;;;1.53;1.43;;;9.30;94.10;8.80;98344.00;;;;5117940;28;20221;-77
2022/05/02 02:21:07;;;;;;;1.27;1.27;;;9.40;94.20;8.80;98328.00;;;;5136249;28;20200;-78
2022/05/02 02:23:34;;;;;;;1.57;1.47;;;9.40;93.70;8.90;98347.00;;;;5118001;28;20225;-78
2022/05/02 02:26:03;;;;;;;1.43;1.43;;;9.40;94.50;8.90;98338.00;;;;5136116;28;20289;-78
2022/05/02 02:28:30;;;;;;;1.43;1.40;;;9.50;93.50;8.70;98342.00;;;;5117536;28;20567;-78
2022/05/02 02:30:57;;;;;;;2.20;1.97;;;9.40;93.10;8.60;98341.00;;;;5136030;28;20213;-77
2022/05/02 02:33:24;;;;;;;1.03;1.03;;;9.40;93.60;8.60;98331.00;;;;5135815;28;20193;-78
2022/05/02 02:35:50;;;;;;;1.40;1.40;;;9.30;94.00;8.60;98342.00;;;;5135971;28;20232;-78
2022/05/02 02:38:17;;;;;;;1.27;1.27;;;9.30;94.50;8.60;98339.00;;;;5118102;28;20201;-77
2022/05/02 02:40:44;;;;;;;1.10;1.10;;;9.30;94.30;8.50;98333.00;;;;5135824;28;20209;-78
2022/05/02 02:43:11;;;;;;;1.63;1.53;;;9.20;94.30;8.50;98332.00;;;;5117890;28;20606;-78
2022/05/02 02:45:37;;;;;;;2.00;1.90;;;9.20;94.70;8.50;98327.00;;;;5135632;28;20277;-78
2022/05/02 02:48:06;;;;;;;1.13;1.13;;;9.10;94.50;8.50;98329.00;;;;5135693;28;20276;-78
2022/05/02 02:50:33;;;;;;;2.27;2.17;;;9.20;94.60;8.50;98329.00;;;;5135810;28;20198;-78
2022/05/02 02:52:59;;;;;;;1.30;1.20;;;9.20;94.50;8.50;98327.00;;;;5135681;28;20251;-77
2022/05/02 02:55:26;;;;;;;0.77;0.77;;;9.20;94.60;8.50;98324.00;;;;5117765;28;20644;-78
2022/05/02 02:57:53;;;;;;;1.63;1.60;;;9.30;94.40;8.40;98323.00;;;;5138881;28;20261;-78
2022/05/02 03:00:20;;;;;;;1.67;1.57;;;9.20;95.00;8.50;98323.00;;;;5140819;28;20262;-80
2022/05/02 03:02:48;;;;;;;1.20;1.20;;;9.20;95.10;8.50;98328.00;;;;5119737;28;20248;-79
2022/05/02 03:08:03;;;;;;;1.30;1.20;;;9.10;94.70;8.40;98310.00;;;;5121520;28;20567;-80
2022/05/02 03:10:29;;;;;;;2.33;2.13;;;9.10;95.20;8.40;98305.00;;;;5141490;28;20292;-78
2022/05/02 03:12:57;;;;;;;1.63;1.53;;;9.10;95.20;8.50;98308.00;;;;5136651;28;20249;-79
2022/05/02 03:15:24;;;;;;;1.00;1.00;;;9.10;95.60;8.50;98303.00;;;;5136761;28;20232;-78
2022/05/02 03:17:52;;;;;;;1.53;1.43;;;9.20;95.30;8.50;98294.00;;;;5117557;28;20309;-78
2022/05/02 03:20:20;;;;;;;1.17;1.17;;;9.20;95.40;8.50;98295.00;;;;5135490;28;20197;-76
2022/05/02 03:22:46;;;;;;;0.97;0.97;;;9.20;95.30;8.70;98295.00;;;;5135048;28;20217;-77
2022/05/02 03:25:13;;;;;;;1.60;1.50;;;9.20;96.50;8.70;98287.00;;;;5135210;28;20243;-77
2022/05/02 03:27:40;;;;;;;1.30;1.30;;;9.30;95.60;8.70;98296.00;;;;5135252;28;20214;-79
2022/05/02 03:30:08;;;;;;;2.17;1.67;;;9.30;96.20;8.60;98298.00;;;;5134929;28;20319;-78
2022/05/02 03:32:34;;;;;;;1.57;1.47;;;9.20;94.30;8.60;98301.00;;;;5134997;28;20228;-78
2022/05/02 03:35:01;;;;;;;1.27;1.27;;;9.20;94.20;8.40;98296.00;;;;5135064;28;20231;-77
2022/05/02 03:37:28;;;;;;;2.10;2.00;;;9.20;94.60;8.40;98301.00;;;;5116988;28;20288;-78
2022/05/02 03:39:55;;;;;;;1.57;1.50;;;9.10;95.50;8.50;98303.00;;;;5133735;27;20262;-77
2022/05/02 03:42:21;;;;;;;2.10;2.00;;;9.20;95.80;8.40;98296.00;;;;5134679;28;20293;-77
2022/05/02 03:44:48;;;;;;;17.03;1.60;;;9.20;95.50;8.50;98295.00;;;;5134889;28;20703;-77
2022/05/02 03:47:14;;;;;;;2.10;2.00;;;9.20;96.20;8.60;98298.00;;;;5134613;28;20217;-77
2022/05/02 03:49:42;;;;;;;5.33;2.10;;;9.20;96.20;8.80;98295.00;;;;5134834;28;20662;-76
2022/05/02 03:52:08;;;;;;;1.53;1.43;;;9.30;96.40;8.80;98254.00;;;;5134711;28;20225;-77
2022/05/02 03:54:36;;;;;;;2.23;2.03;;;9.40;96.20;8.80;98294.00;;;;5134783;28;20256;-77
2022/05/02 03:57:03;;;;;;;0.80;0.80;;;9.40;96.10;8.90;98282.00;;;;5135487;28;20221;-78
2022/05/02 03:59:31;;;;;;;2.37;2.17;;;9.50;96.30;8.90;98286.00;;;;5122652;28;20202;-78
2022/05/02 04:01:58;;;;;;;1.63;1.53;;;9.50;96.20;8.80;98290.00;;;;5141907;28;20194;-78
2022/05/02 04:04:25;;;;;;;1.10;1.10;;;9.50;96.20;8.80;98296.00;;;;5119911;28;20552;-77
2022/05/02 04:06:51;;;;;;;2.00;1.90;;;9.50;96.70;8.80;98299.00;;;;5116853;28;20633;-78
2022/05/02 04:09:20;;;;;;;1.23;1.20;;;9.50;96.60;8.90;98296.00;;;;5134486;28;20225;-78
2022/05/02 04:11:47;;;;;;;1.33;1.33;;;9.60;97.00;8.90;98304.00;;;;5134750;28;20228;-77
2022/05/02 04:14:16;;;;;;;2.40;1.53;;;9.60;96.80;8.90;98293.00;;;;5116303;28;20251;-78
2022/05/02 04:16:42;;;;;;;1.70;1.60;;;9.60;96.80;9.00;98296.00;;;;5116354;28;20213;-78
2022/05/02 04:19:09;;;;;;;2.37;1.80;;;9.60;96.80;9.00;98297.00;;;;5134553;28;20206;-78
2022/05/02 04:21:35;;;;;;;2.30;2.20;;;9.70;96.80;9.10;98295.00;;;;5116528;28;20235;-78
2022/05/02 04:24:02;;;;;;;1.77;1.67;;;9.70;96.50;9.00;98297.00;;;;5134377;28;20197;-77
2022/05/02 04:26:29;;;;;;;1.47;1.37;;;9.70;95.20;8.90;98291.00;;;;5134354;28;20270;-79
2022/05/02 04:28:56;;;;;;;1.30;1.30;;;9.60;95.30;9.00;98291.00;;;;5134410;28;20197;-79
2022/05/02 04:31:22;;;;;;;1.70;1.60;;;9.60;95.50;8.90;98290.00;;;;5134374;28;20316;-79
2022/05/02 04:33:51;;;;;;;1.37;1.37;;;9.60;94.90;8.90;98286.00;;;;5134142;28;20239;-80
2022/05/02 04:36:18;;;;;;;2.07;1.97;;;9.60;94.60;8.90;98290.00;;;;5134263;28;20210;-79
2022/05/02 04:38:44;;;;;;;1.73;1.63;;;9.60;94.20;8.90;98285.00;;;;5134303;28;20272;-77
2022/05/02 04:41:14;;;;;;;2.07;1.93;;;9.60;94.30;8.90;98288.00;;;;5134205;28;20235;-79
2022/05/02 04:43:41;;;;;;;1.00;1.00;;;9.60;94.40;8.90;98292.00;;;;5116344;28;20221;-79
2022/05/02 04:46:11;;;;;;;1.57;1.47;;;9.60;94.50;9.00;98287.00;;;;5134066;28;20205;-79
2022/05/02 04:48:37;;;;;;;1.50;1.43;;;9.60;95.00;9.00;98283.00;;;;5134384;28;20240;-79
2022/05/02 04:51:06;;;;;;;1.20;1.20;;;9.70;94.80;8.80;98284.00;;;;5135683;27;20201;-78
2022/05/02 04:53:34;;;;;;;1.50;1.40;;;9.60;94.90;8.80;98302.00;;;;5120132;28;20262;-77
2022/05/02 04:56:01;;;;;;;1.67;1.57;;;9.50;95.60;8.90;98293.00;;;;5137966;28;20266;-78
2022/05/02 04:58:27;;;;;;;2.97;2.77;;;9.50;95.70;8.90;98291.00;;;;5137554;28;20189;-77
2022/05/02 05:00:54;;;;;;;0.97;0.97;;;9.60;95.70;9.00;98297.00;;;;5137461;28;20272;-78
2022/05/02 05:03:22;;;;;;;2.63;2.47;;;9.60;95.80;9.00;98288.00;;;;5119318;28;20209;-79
2022/05/02 05:05:50;;;;;;;1.30;1.30;;;9.60;95.90;9.00;98291.00;;;;5137151;28;20267;-77
2022/05/02 05:08:17;;;;;;;2.87;1.43;;;9.70;95.90;9.00;98287.00;;;;5119706;28;20509;-78
2022/05/02 05:10:53;;;;;;;1.73;1.63;;;9.70;95.80;9.10;98295.00;;;;5137328;28;20213;-78
2022/05/02 05:13:27;;;;;;;1.90;1.80;;;9.70;97.10;9.10;98289.00;;;;5137271;28;20212;-78
2022/05/02 05:16:24;;;;;;;2.20;2.10;;;9.80;96.00;9.20;98287.00;;;;5137059;28;20256;-78
2022/05/02 05:19:34;;;;;;;1.10;1.10;;;9.80;97.10;9.10;98285.00;;;;5137292;28;20189;-78
2022/05/02 05:22:15;;;;;;;2.53;2.33;;;9.80;96.10;9.10;98260.00;;;;5119064;28;20223;-78
2022/05/02 05:25:13;;;;;;;1.90;1.80;;;9.80;96.50;9.10;98270.00;;;;5137247;28;20648;-78
2022/05/02 05:27:57;;;;;;;1.20;1.20;;;9.80;96.60;9.20;98288.00;;;;5136876;28;20274;-78
2022/05/02 05:30:34;;;;;;;1.90;1.73;;;9.90;97.10;9.30;98288.00;;;;5136946;28;20520;-78
2022/05/02 05:33:23;;;;;;;2.47;2.37;;;9.90;97.00;9.40;98285.00;;;;5119083;28;20665;-79
2022/05/02 05:36:15;;;;;;;1.77;1.67;;;10.00;96.70;9.60;98294.00;;;;5136884;28;20221;-78
2022/05/02 05:38:54;;;;;;;2.00;1.90;;;10.10;96.50;9.60;98294.00;;;;5136842;28;20708;-77
2022/05/02 05:41:45;;;;;;;1.83;1.73;;;10.20;96.10;9.60;98293.00;;;;5136720;28;20204;-78
2022/05/02 05:44:28;;;;;;;1.30;1.20;;;10.30;95.90;9.70;98290.00;;;;5136972;28;20225;-79
2022/05/02 05:47:20;;;;;;;2.57;2.37;;;10.30;96.30;9.80;98296.00;;;;5136772;28;20279;-78
2022/05/02 05:50:05;;;;;;;2.10;1.90;;;10.40;96.20;9.70;98292.00;;;;5118594;28;20249;-79
2022/05/02 05:52:50;;;;;;;1.30;1.30;;;10.40;96.30;9.80;98286.00;;;;5118613;28;20367;-79
2022/05/02 05:55:22;;;;;;;1.97;1.80;;;10.40;96.50;9.90;98290.00;;;;5136428;28;20600;-79
2022/05/02 05:57:57;;;;;;;1.83;1.73;;;10.50;96.40;9.90;98294.00;;;;5118494;28;20735;-78
2022/05/02 06:00:30;;;;;;;2.17;1.97;;;10.60;96.30;10.00;98287.00;;;;5136511;28;20279;-79
2022/05/02 06:03:12;;;;;;;1.87;1.77;;;10.60;96.00;10.00;98284.00;;;;5135745;27;20665;-78
2022/05/02 06:05:41;;;;;;;2.07;1.97;;;10.60;96.30;10.00;98281.00;;;;5136375;28;20185;-79
2022/05/02 06:08:11;;;;;;;5.90;2.90;;;10.70;96.50;10.10;98272.00;;;;5118325;28;20258;-78
2022/05/02 06:10:41;;;;;;;2.50;2.33;;;10.70;96.70;10.20;98289.00;;;;5136752;28;20224;-80
2022/05/02 06:13:09;;;;;;;1.33;1.33;;;10.80;96.70;10.20;98291.00;;;;5136311;28;20213;-79
2022/05/02 06:18:29;;;;;;;3.73;2.77;;;10.90;97.10;10.40;98298.00;;;;5136460;28;20225;-77
2022/05/02 06:20:59;;;;;;;3.87;3.57;;;10.90;96.20;10.40;98296.00;;;;5136042;28;20224;-78
2022/05/02 06:23:31;;;;;;;4.00;2.43;;;11.00;95.70;10.50;98296.00;;;;5135990;28;20664;-78
2022/05/02 06:25:59;;;;;;;1.30;1.20;;;11.10;95.30;10.60;98295.00;;;;5136156;28;20221;-80
2022/05/02 06:28:34;;;;;;;2.90;2.43;;;11.20;94.70;10.80;98292.00;;;;5135881;28;20254;-79
2022/05/02 06:31:04;;;;;;;1.97;1.87;;;11.30;94.70;10.80;98292.00;;;;5135974;28;20566;-79
2022/05/02 06:33:31;;;;;;;2.17;2.00;;;11.40;94.20;11.00;98290.00;;;;5118305;28;20193;-79
2022/05/02 06:36:47;;;;;;;3.63;2.83;;;11.50;94.90;11.20;98289.00;;;;5135835;28;20676;-79
2022/05/02 06:39:29;;;;;;;2.30;1.73;;;11.70;94.40;11.40;98291.00;;;;5135929;28;20288;-79
2022/05/02 06:42:16;;;;;;;2.93;2.33;;;11.90;93.50;11.50;98289.00;;;;5117703;28;20651;-79
2022/05/02 06:45:01;;;;;;;4.63;3.63;;;12.00;92.50;11.50;98288.00;;;;5135811;28;20189;-79
2022/05/02 06:47:51;;;;;;;2.40;2.03;;;12.00;91.80;11.60;98285.00;;;;5117891;28;20544;-79
2022/05/02 06:50:20;;;;;;;2.30;2.00;;;;;11.90;98287.00;;;;5135890;28;20221;-78
2022/05/02 06:53:06;;;;;;;1.53;1.43;;;12.30;90.20;11.90;98283.00;;;;5136539;28;20186;-80
2022/05/02 06:55:47;;;;;;;5.17;3.30;;;12.40;90.10;12.10;98282.00;;;;5118073;28;20768;-80
2022/05/02 06:58:29;;;;;;;2.87;2.67;;;12.60;90.70;12.20;98285.00;;;;5135973;28;20197;-79
2022/05/02 07:01:14;;;;;;;2.13;2.03;;;12.70;90.40;12.30;98283.00;;;;5136558;28;20196;-79
2022/05/02 07:04:16;;;;;;;2.40;2.27;;;12.80;91.00;12.40;98286.00;;;;5136614;28;20274;-79
2022/05/02 07:07:10;;;;;;;4.53;1.67;;;12.90;89.90;12.60;98282.00;;;;5138452;28;20221;-79
2022/05/02 07:09:45;;;;;;;2.10;1.77;;;13.10;90.00;12.60;98274.00;;;;5119027;28;20296;-78
2022/05/02 07:12:19;;;;;;;3.03;2.83;;;;;12.80;98279.00;;;;5140276;28;20675;-79
2022/05/02 07:15:05;;;;;;;1.73;1.63;;;13.30;87.90;13.10;98281.00;;;;5121909;28;20594;-78
2022/05/02 07:18:02;;;;;;;1.80;1.70;;;13.50;88.10;13.30;98291.00;;;;5125676;28;20193;-80
2022/05/02 07:20:35;;;;;;;1.70;1.60;;;;;13.50;98291.00;;;;5136512;28;20221;-79
2022/05/02 07:23:38;;;;;;;2.67;2.50;;;13.90;85.10;13.70;98289.00;;;;5136218;28;20287;-79
2022/05/02 07:26:10;;;;;;;1.43;1.43;;;14.10;85.10;13.80;98294.00;;;;5135544;28;20505;-78
2022/05/02 07:28:44;;;;;;;1.83;1.73;;;14.20;84.20;13.80;98292.00;;;;5135188;28;20220;-79
2022/05/02 07:31:14;;;;;;;5.80;3.17;;;14.30;83.40;13.80;98288.00;;;;5134963;28;20236;-79
2022/05/02 07:33:40;;;;;;;6.07;3.70;;;14.30;82.90;13.70;98294.00;;;;5135017;28;20292;-79
2022/05/02 07:36:17;;;;;;;1.80;1.70;;;14.30;84.10;13.70;98296.00;;;;5116812;28;20233;-78
2022/05/02 07:38:47;;;;;;;2.00;1.90;;;14.20;83.50;13.80;98297.00;;;;5134953;28;20220;-79
2022/05/02 07:41:25;;;;;;;3.37;3.13;;;14.30;83.40;13.80;98297.00;;;;5134718;28;20189;-79
2022/05/02 07:43:59;;;;;;;2.70;2.53;;;14.30;83.70;13.80;98293.00;;;;5135007;28;20219;-79
2022/05/02 07:46:29;;;;;;;2.40;2.30;;;14.30;83.30;13.80;98294.00;;;;5135038;28;20212;-79
2022/05/02 07:48:59;;;;;;;2.77;2.50;;;14.30;82.50;13.80;98296.00;;;;5134915;28;20213;-79
2022/05/02 07:51:28;;;;;;;3.07;2.87;;;14.30;83.80;13.80;98300.00;;;;5134743;28;20207;-79
2022/05/02 07:53:57;;;;;;;2.60;2.40;;;14.30;83.60;13.80;98295.00;;;;5134689;28;20249;-78
2022/05/02 07:56:27;;;;;;;2.37;2.17;;;14.30;84.10;13.80;98301.00;;;;5134786;28;20224;-80
2022/05/02 07:58:58;;;;;;;2.50;2.30;;;14.30;83.20;13.70;98289.00;;;;5134771;28;20213;-78
2022/05/02 08:01:26;;;;;;;4.33;2.80;;;14.30;82.00;13.70;98289.00;;;;5116436;28;20203;-79
2022/05/02 08:03:53;;;;;;;2.83;2.63;;;14.30;83.10;13.80;98295.00;;;;5134487;28;20299;-78
2022/05/02 08:06:55;;;;;;;2.90;2.60;;;14.40;82.90;13.90;98294.00;;;;5134686;28;20280;-78
2022/05/02 08:10:04;;;;;;;2.50;2.40;;;14.50;82.00;14.00;98292.00;;;;5103507;28;20250;-80
2022/05/02 08:12:37;;;;;;;2.90;2.47;;;14.50;82.50;14.00;98284.00;;;;5134429;28;20197;-78
2022/05/02 08:15:19;;;;;;;2.03;1.93;;;14.60;81.70;14.20;98285.00;;;;5134163;28;20220;-79
2022/05/02 08:18:21;;;;;;;2.60;2.40;;;14.70;80.20;14.20;98283.00;;;;5134435;28;20224;-77
2022/05/02 08:20:55;;;;;;;2.97;2.77;;;14.70;80.30;14.40;98281.00;;;;5134584;28;20319;-79
2022/05/02 08:27:15;;;;;;;1.83;1.73;;;15.00;79.60;14.30;98285.00;;;;5136256;27;20221;-79
2022/05/02 08:30:05;;;;;;;3.70;3.20;;;14.90;78.90;14.50;98289.00;;;;5138167;28;20210;-78
2022/05/02 08:32:43;;;;;;;2.43;2.27;;;15.00;79.20;14.40;98289.00;;;;5137136;28;20289;-79
2022/05/02 08:35:14;;;;;;;2.03;1.80;;;15.00;78.80;14.60;98288.00;;;;5137472;28;20212;-78
2022/05/02 08:38:00;;;;;;;1.53;1.50;;;15.10;78.00;14.70;98267.00;;;;5137836;28;20216;-79
2022/05/02 08:41:26;;;;;;;2.83;2.63;;;15.30;77.00;14.90;98285.00;;;;5119806;28;20196;-79
2022/05/02 08:45:03;;;;;;;4.33;3.40;;;15.30;75.10;14.90;98279.00;;;;5054655;28;20306;-78
2022/05/02 08:48:24;;;;;;;2.73;2.53;;;15.40;74.90;15.20;98265.00;;;;5137608;28;20217;-78
2022/05/02 08:51:42;;;;;;;1.67;1.57;;;15.60;75.70;15.30;98275.00;;;;5137701;28;20197;-79
2022/05/02 08:55:04;;;;;;;2.70;2.50;;;15.70;73.40;15.30;98274.00;;;;5137786;28;20362;-79
2022/05/02 08:58:18;;;;;;;1.53;1.47;;;15.80;72.50;15.40;98270.00;;;;5137676;28;20189;-79
2022/05/02 09:01:07;;;;;;;2.20;2.10;;;15.80;69.50;15.30;98269.00;;;;5104070;28;20307;-78
2022/05/02 09:04:42;;;;;;;3.43;2.67;;;15.90;68.30;15.50;98270.00;;;;5137616;28;20592;-79
2022/05/02 09:08:08;;;;;;;3.07;2.87;;;16.10;67.60;15.70;98269.00;;;;5078101;28;20208;-79
2022/05/02 09:11:07;;;;;;;2.07;1.97;;;16.10;68.30;15.90;98262.00;;;;5137132;28;20193;-79
2022/05/02 09:14:12;;;;;;;1.97;1.87;;;16.30;67.60;16.10;98268.00;;;;5137324;28;20208;-79
2022/05/02 09:17:34;;;;;;;1.87;1.77;;;16.50;65.30;16.20;98268.00;;;;5137261;28;20296;-80
2022/05/02 09:20:56;;;;;;;4.13;3.23;;;16.60;62.90;16.50;98270.00;;;;5137291;28;20201;-79
2022/05/02 09:24:26;;;;;;;2.33;2.23;;;16.80;59.20;16.60;98265.00;;;;5074197;28;20294;-78
2022/05/02 09:27:15;;;;;;;2.90;2.53;;;17.00;60.10;16.50;98246.00;;;;5108321;28;20316;-79
2022/05/02 09:30:38;;;;;;;1.47;1.37;;;17.00;59.20;16.80;98269.00;;;;5118943;28;20205;-79
2022/05/02 09:33:28;;;;;;;1.47;1.43;;;17.40;58.80;17.00;98269.00;;;;5136916;28;20717;-79
2022/05/02 09:36:19;;;;;;;2.10;2.00;;;17.30;59.40;17.10;98278.00;;;;5136745;28;20223;-79
2022/05/02 09:38:51;;;;;;;2.20;2.10;;;17.50;57.30;17.10;98279.00;;;;5136816;28;20229;-79
2022/05/02 09:42:17;;;;;;;2.10;2.00;;;17.50;54.20;17.20;98257.00;;;;5136894;28;20193;-79
2022/05/02 09:51:54;;;;;;;2.07;1.97;;;17.80;53.30;17.30;98255.00;;;;5136619;28;20241;-79
2022/05/02 09:57:57;;;;;;;3.10;2.50;;;17.90;52.80;17.50;98253.00;;;;5136643;28;20203;-79
2022/05/02 10:03:29;;;;;;;1.23;1.17;;;18.20;52.70;18.10;98249.00;;;;5136467;28;20244;-78
2022/05/02 10:06:04;;;;;;;2.40;2.20;;;18.40;50.30;18.50;98238.00;;;;5118491;28;20544;-79
2022/05/02 10:08:45;;;;;;;1.37;1.27;;;;;18.60;98240.00;;;;5136396;28;20520;-79
2022/05/02 10:11:30;;;;;;;1.17;1.17;;;18.90;45.90;18.70;98227.00;;;;5136458;28;20212;-79
2022/05/02 10:14:22;;;;;;;1.87;1.77;;;19.10;46.00;19.00;98236.00;;;;5136567;28;20197;-79
2022/05/02 10:16:57;;;;;;;2.00;1.90;;;19.20;45.60;19.20;98230.00;;;;5136698;28;20208;-79
2022/05/02 10:19:46;;;;;;;1.83;1.73;;;19.50;43.70;19.30;98231.00;;;;5137239;28;20239;-79
2022/05/02 10:22:27;;;;;;;0.77;0.77;;;19.60;44.50;19.50;98227.00;;;;5137825;28;20226;-79
2022/05/02 10:25:11;;;;;;;1.07;1.07;;;19.90;44.70;19.50;98229.00;;;;5136101;28;20227;-80
2022/05/02 10:28:04;;;;;;;1.87;1.77;;;19.90;42.30;19.30;98222.00;;;;5136099;28;20280;-79
2022/05/02 10:30:47;;;;;;;1.27;1.17;;;19.70;42.70;19.40;98226.00;;;;5135872;28;20217;-79
2022/05/02 10:33:21;;;;;;;1.33;1.03;;;19.80;42.70;19.50;98227.00;;;;5136090;28;20204;-79
2022/05/02 10:35:51;;;;;;;1.57;1.47;;;19.90;43.40;19.60;98228.00;;;;5135803;28;20672;-79
2022/05/02 10:38:30;;;;;;;1.80;1.70;;;20.00;43.40;20.00;98220.00;;;;5117997;28;20721;-79
2022/05/02 10:41:12;;;;;;;1.37;1.27;;;20.20;42.10;20.20;98222.00;;;;5136052;28;20231;-79
2022/05/02 10:43:50;;;;;;;1.53;1.43;;;20.40;40.80;20.00;98224.00;;;;5135934;28;20178;-79
2022/05/02 10:46:22;;;;;;;1.47;1.40;;;20.50;38.60;20.10;98216.00;;;;5135930;28;20542;-79
2022/05/02 10:48:56;;;;;;;1.73;1.63;;;20.50;39.70;20.30;98209.00;;;;5135264;27;20692;-79
2022/05/02 10:51:46;;;;;;;1.07;1.07;;;20.60;40.90;20.60;98215.00;;;;5136327;28;20217;-80
2022/05/02 10:54:40;;;;;;;3.03;1.17;;;20.90;40.20;21.00;98213.00;;;;5135933;28;20308;-79
2022/05/02 10:57:25;;;;;;;2.40;1.93;;;21.20;38.40;21.00;98217.00;;;;5135791;28;20223;-79
2022/05/02 10:59:55;;;;;;;1.23;1.23;;;21.20;38.40;21.00;98201.00;;;;5117940;28;20239;-80
2022/05/02 11:02:54;;;;;;;0.93;0.93;;;21.20;38.40;21.00;98205.00;;;;5135936;28;20209;-79
2022/05/02 11:05:27;;;;;;;1.20;1.20;;;21.30;38.20;20.90;98202.00;;;;5136701;28;20196;-79
2022/05/02 11:08:06;;;;;;;2.27;2.07;;;21.30;37.70;20.80;98186.00;;;;5137271;28;20204;-79
2022/05/02 11:10:42;;;;;;;1.10;1.10;;;21.30;39.00;21.30;98194.00;;;;5140761;28;20190;-80
2022/05/02 11:13:31;;;;;;;0.75;0.75;;;21.50;40.20;21.40;98194.00;;;;5143752;28;20197;-81
2022/05/02 11:16:25;;;;;;;2.33;1.88;;;21.70;38.40;21.50;98200.00;;;;5142590;28;20428;-78
2022/05/02 11:22:09;;;;;;;0.98;0.98;;;21.70;36.00;21.30;98201.00;;;;5138379;28;20226;-80
2022/05/02 11:24:47;;;;;;;1.45;1.45;;;21.60;37.20;21.10;98204.00;;;;5136895;28;20276;-80
2022/05/02 11:27:37;;;;;;;1.20;1.20;;;21.50;37.60;21.10;98198.00;;;;5136649;28;20292;-79
2022/05/02 11:30:07;;;;;;;1.53;1.47;;;21.50;39.50;21.50;98192.00;;;;5135532;28;20300;-79
2022/05/02 11:33:10;;;;;;;0.82;0.82;;;21.60;38.80;21.90;98194.00;;;;5135051;28;20204;-79
2022/05/02 11:35:37;;;;;;;1.92;1.83;;;22.00;39.80;22.20;98186.00;;;;5092682;28;20244;-79
2022/05/02 11:38:25;;;;;;;1.73;1.63;;;22.30;37.20;22.10;98193.00;;;;5135433;28;20204;-80
2022/05/02 11:40:59;;;;;;;2.25;2.10;;;22.40;36.70;21.90;98195.00;;;;5135343;28;20277;-79
2022/05/02 11:43:32;;;;;;;1.65;1.52;;;22.20;36.60;21.60;98186.00;;;;5135070;28;20197;-79
2022/05/02 11:46:15;;;;;;;2.53;1.85;;;22.00;35.60;21.20;98187.00;;;;5135190;28;20295;-78
2022/05/02 11:49:14;;;;;;;1.35;1.35;;;21.70;36.70;21.30;98190.00;;;;5135031;28;20651;-78
2022/05/02 11:51:45;;;;;;;2.65;2.38;;;21.60;37.30;21.40;98180.00;;;;5134844;28;20274;-78
2022/05/02 11:54:37;;;;;;;1.67;1.58;;;21.70;36.40;21.30;98177.00;;;;5134777;28;20656;-78
2022/05/02 11:57:14;;;;;;;1.38;1.27;;;21.60;39.00;21.90;98179.00;;;;5116986;28;20291;-79
2022/05/02 11:59:54;;;;;;;1.33;1.27;;;22.00;36.80;21.90;98174.00;;;;5134781;27;20244;-79
2022/05/02 12:02:40;;;;;;;4.15;1.98;;;22.20;36.20;22.40;98171.00;;;;5138404;28;20186;-79
2022/05/02 12:05:23;;;;;;;1.05;1.05;;;22.60;36.30;22.90;98179.00;;;;5138411;28;20714;-78
2022/05/02 12:07:53;;;;;;;1.55;1.48;;;23.00;34.40;22.60;98181.00;;;;5139593;28;20193;-79
2022/05/02 12:10:30;;;;;;;1.33;1.23;;;23.00;32.90;21.90;98165.00;;;;5138854;28;20221;-79
2022/05/02 12:12:58;;;;;;;8.65;1.60;;;22.50;32.80;21.80;98186.00;;;;5138626;28;20237;-79